Main page
METAR-TAF:

METAR-TAF

Airports :

London Stansted Airport

London-Stansted, England

latitude: 51-53N, longitude: 000-14E, elevation: 106 m

Current weather observation

The report was made 21 minutes ago, at 08:50 UTC
Wind 9 kt from the Southwest
Temperature 18°C
Humidity 68%
Pressure 1027 hPa
Visibility 10 km or more

METAR: EGSS 210850Z AUTO 23009KT 9999 NCD 18/12 Q1027

Time: 10:11 (09:11 UTC)

Forecast

The report was made 4 hours and 16 minutes ago, at 04:55 UTC
Forecast valid from 21 at 06 UTC to 22 at 12 UTC
Wind 4 kt from the Southwest
Visibility 10 km or more
Few clouds at a height of 4000 ft
Probability 30%
from 22 at 02 UTC to 22 at 07 UTC
Visibility: 6000 m

TAF: EGSS 210455Z 2106/2212 23004KT 9999 FEW040 PROB30 2202/2207 6000

Weather observations and forecasts of more than 4000 airports (METAR and TAF reports).

The available stations are represented by yellow and red dots on the map.

Hover mouse over dot to see the name of the station.

Then click to see weather observations and forecasts.

To change the map : click on the green buttons with a black cross to zoom in, on the green button with a dash to zoom out, or on the green arrows for adjacent maps.


METAR-TAF: